sensor_id;sensor_type;location;lat;lon;timestamp;P1;durP1;ratioP1;P2;durP2;ratioP2
30384;SDS011;17181;51.002;4.096;2023-05-10T02:04:15;1.13;;;1.10;;
30384;SDS011;17181;51.002;4.096;2023-05-10T02:13:56;3.77;;;1.67;;
30384;SDS011;17181;51.002;4.096;2023-05-10T02:17:19;3.73;;;2.73;;
30384;SDS011;17181;51.002;4.096;2023-05-10T02:20:46;3.90;;;3.30;;
30384;SDS011;17181;51.002;4.096;2023-05-10T02:23:14;8.47;;;4.10;;
30384;SDS011;17181;51.002;4.096;2023-05-10T02:25:43;41.37;;;5.30;;
30384;SDS011;17181;51.002;4.096;2023-05-10T02:34:47;3.33;;;3.03;;
30384;SDS011;17181;51.002;4.096;2023-05-10T02:37:18;14.80;;;6.63;;
30384;SDS011;17181;51.002;4.096;2023-05-10T02:46:18;4.70;;;2.83;;
30384;SDS011;17181;51.002;4.096;2023-05-10T02:48:45;8.53;;;5.07;;
30384;SDS011;17181;51.002;4.096;2023-05-10T05:21:14;3.57;;;2.87;;
30384;SDS011;17181;51.002;4.096;2023-05-10T05:23:45;17.73;;;8.73;;
30384;SDS011;17181;51.002;4.096;2023-05-10T05:26:16;16.63;;;9.50;;
30384;SDS011;17181;51.002;4.096;2023-05-10T05:35:16;17.70;;;7.93;;
30384;SDS011;17181;51.002;4.096;2023-05-10T05:50:55;22.93;;;9.43;;
30384;SDS011;17181;51.002;4.096;2023-05-10T05:53:33;19.93;;;9.17;;
30384;SDS011;17181;51.002;4.096;2023-05-10T05:58:41;25.10;;;11.03;;
30384;SDS011;17181;51.002;4.096;2023-05-10T06:39:44;24.80;;;11.10;;
30384;SDS011;17181;51.002;4.096;2023-05-10T06:42:43;24.10;;;11.13;;
30384;SDS011;17181;51.002;4.096;2023-05-10T16:34:21;29.47;;;14.57;;
30384;SDS011;17181;51.002;4.096;2023-05-10T22:15:14;15.27;;;10.10;;
30384;SDS011;17181;51.002;4.096;2023-05-10T22:17:40;22.77;;;11.23;;
30384;SDS011;17181;51.002;4.096;2023-05-10T22:20:08;25.13;;;12.20;;
30384;SDS011;17181;51.002;4.096;2023-05-10T22:22:34;25.90;;;11.30;;
30384;SDS011;17181;51.002;4.096;2023-05-10T22:25:01;15.57;;;10.10;;
30384;SDS011;17181;51.002;4.096;2023-05-10T22:27:27;27.30;;;13.23;;
30384;SDS011;17181;51.002;4.096;2023-05-10T22:29:52;21.53;;;11.00;;
30384;SDS011;17181;51.002;4.096;2023-05-10T22:32:18;20.67;;;11.57;;
30384;SDS011;17181;51.002;4.096;2023-05-10T22:34:44;23.47;;;11.20;;
30384;SDS011;17181;51.002;4.096;2023-05-10T22:37:10;21.10;;;11.30;;
30384;SDS011;17181;51.002;4.096;2023-05-10T22:39:39;22.03;;;9.90;;
30384;SDS011;17181;51.002;4.096;2023-05-10T22:42:05;18.60;;;10.13;;
30384;SDS011;17181;51.002;4.096;2023-05-10T22:44:31;28.67;;;12.10;;
30384;SDS011;17181;51.002;4.096;2023-05-10T22:46:57;19.50;;;10.37;;
30384;SDS011;17181;51.002;4.096;2023-05-10T22:49:24;18.33;;;11.00;;
30384;SDS011;17181;51.002;4.096;2023-05-10T22:51:50;29.20;;;12.43;;
30384;SDS011;17181;51.002;4.096;2023-05-10T22:54:16;25.97;;;13.20;;
30384;SDS011;17181;51.002;4.096;2023-05-10T22:56:42;30.73;;;12.03;;
30384;SDS011;17181;51.002;4.096;2023-05-10T22:59:09;25.20;;;11.17;;
30384;SDS011;17181;51.002;4.096;2023-05-10T23:01:35;33.90;;;12.67;;
30384;SDS011;17181;51.002;4.096;2023-05-10T23:04:01;27.00;;;11.47;;
30384;SDS011;17181;51.002;4.096;2023-05-10T23:06:27;33.50;;;11.83;;
30384;SDS011;17181;51.002;4.096;2023-05-10T23:08:56;26.23;;;11.53;;
30384;SDS011;17181;51.002;4.096;2023-05-10T23:11:23;19.60;;;11.07;;
30384;SDS011;17181;51.002;4.096;2023-05-10T23:13:50;25.67;;;11.93;;
30384;SDS011;17181;51.002;4.096;2023-05-10T23:16:16;19.33;;;10.50;;
30384;SDS011;17181;51.002;4.096;2023-05-10T23:18:45;21.03;;;11.50;;
30384;SDS011;17181;51.002;4.096;2023-05-10T23:21:12;23.67;;;10.23;;
30384;SDS011;17181;51.002;4.096;2023-05-10T23:23:39;23.87;;;11.07;;
30384;SDS011;17181;51.002;4.096;2023-05-10T23:26:05;19.33;;;10.67;;
30384;SDS011;17181;51.002;4.096;2023-05-10T23:28:32;24.03;;;9.97;;
30384;SDS011;17181;51.002;4.096;2023-05-10T23:30:59;19.27;;;9.20;;
30384;SDS011;17181;51.002;4.096;2023-05-10T23:33:25;17.27;;;8.90;;
30384;SDS011;17181;51.002;4.096;2023-05-10T23:35:53;29.47;;;9.23;;
30384;SDS011;17181;51.002;4.096;2023-05-10T23:38:19;16.83;;;8.20;;
30384;SDS011;17181;51.002;4.096;2023-05-10T23:40:46;20.67;;;9.40;;
30384;SDS011;17181;51.002;4.096;2023-05-10T23:43:14;17.30;;;8.03;;
30384;SDS011;17181;51.002;4.096;2023-05-10T23:45:40;27.53;;;8.13;;
30384;SDS011;17181;51.002;4.096;2023-05-10T23:48:07;16.30;;;7.50;;
30384;SDS011;17181;51.002;4.096;2023-05-10T23:50:34;16.87;;;7.50;;
30384;SDS011;17181;51.002;4.096;2023-05-10T23:53:01;9.13;;;5.17;;
30384;SDS011;17181;51.002;4.096;2023-05-10T23:55:28;11.10;;;5.27;;
30384;SDS011;17181;51.002;4.096;2023-05-10T23:57:54;10.63;;;6.40;;
